Aviation Digital Data Service (ADDS)

Output produced by METARs form (1641 UTC 16 June 2019)
found at http://www.aviationweather.gov/metar/data/
 
METAR text: MNMG 161600Z 09010KT 9999 FEW023 31/23 Q1011 A2987 NOSIG
Conditions at: MNMG (MANAGUA/AUGUSTO , NI) observed 1600 UTC 16 June 2019
Temperature: 31.0°C (88°F)
Dewpoint: 23.0°C (73°F) [RH = 63%]
Pressure (altimeter): 29.85 inches Hg (1011.0 mb)
Winds: from the E (90 degrees) at 12 MPH (10 knots; 5.1 m/s)
Visibility: 6 or more miles (10+ km)
Ceiling: at least 12,000 feet AGL
Clouds: few clouds at 2300 feet AGL
Weather: no significant weather observed at this time

METAR text: MNMG 161500Z 09008KT 9999 FEW020 SCT300 29/23 Q1012 A2989 NOSIG
Conditions at: MNMG (MANAGUA/AUGUSTO , NI) observed 1500 UTC 16 June 2019
Temperature: 29.0°C (84°F)
Dewpoint: 23.0°C (73°F) [RH = 70%]
Pressure (altimeter): 29.88 inches Hg (1012.0 mb)
Winds: from the E (90 degrees) at 9 MPH (8 knots; 4.1 m/s)
Visibility: 6 or more miles (10+ km)
Ceiling: at least 12,000 feet AGL
Clouds: few clouds at 2000 feet AGL
scattered clouds at 30000 feet AGL
Weather: no significant weather observed at this time

METAR text: MNMG 161400Z 09010KT 9999 FEW021 SCT300 28/23 Q1011 A2988 NOSIG
Conditions at: MNMG (MANAGUA/AUGUSTO , NI) observed 1400 UTC 16 June 2019
Temperature: 28.0°C (82°F)
Dewpoint: 23.0°C (73°F) [RH = 74%]
Pressure (altimeter): 29.85 inches Hg (1011.0 mb)
Winds: from the E (90 degrees) at 12 MPH (10 knots; 5.1 m/s)
Visibility: 6 or more miles (10+ km)
Ceiling: at least 12,000 feet AGL
Clouds: few clouds at 2100 feet AGL
scattered clouds at 30000 feet AGL
Weather: no significant weather observed at this time

METAR text: MNMG 161300Z 14006KT 9999 FEW021 SCT300 27/23 Q1011 A2986 NOSIG
Conditions at: MNMG (MANAGUA/AUGUSTO , NI) observed 1300 UTC 16 June 2019
Temperature: 27.0°C (81°F)
Dewpoint: 23.0°C (73°F) [RH = 79%]
Pressure (altimeter): 29.85 inches Hg (1011.0 mb)
Winds: from the SE (140 degrees) at 7 MPH (6 knots; 3.1 m/s)
Visibility: 6 or more miles (10+ km)
Ceiling: at least 12,000 feet AGL
Clouds: few clouds at 2100 feet AGL
scattered clouds at 30000 feet AGL
Weather: no significant weather observed at this time

METAR text: MNMG 161200Z 12004KT 9999 FEW020 BKN300 24/22 Q1010 A2984 NOSIG
Conditions at: MNMG (MANAGUA/AUGUSTO , NI) observed 1200 UTC 16 June 2019
Temperature: 24.0°C (75°F)
Dewpoint: 22.0°C (72°F) [RH = 89%]
Pressure (altimeter): 29.82 inches Hg (1010.0 mb)
Winds: from the ESE (120 degrees) at 5 MPH (4 knots; 2.1 m/s)
Visibility: 6 or more miles (10+ km)
Ceiling: 30000 feet AGL
Clouds: few clouds at 2000 feet AGL
broken clouds at 30000 feet AGL
Weather: no significant weather observed at this time

METAR text: MNMG 161100Z 12004KT 9999 FEW020 SCT300 24/22 Q1009 A2982 NOSIG
Conditions at: MNMG (MANAGUA/AUGUSTO , NI) observed 1100 UTC 16 June 2019
Temperature: 24.0°C (75°F)
Dewpoint: 22.0°C (72°F) [RH = 89%]
Pressure (altimeter): 29.79 inches Hg (1009.0 mb)
Winds: from the ESE (120 degrees) at 5 MPH (4 knots; 2.1 m/s)
Visibility: 6 or more miles (10+ km)
Ceiling: at least 12,000 feet AGL
Clouds: few clouds at 2000 feet AGL
scattered clouds at 30000 feet AGL
Weather: no significant weather observed at this time

METAR text: MNMG 161000Z 09006KT 9999 FEW020 25/22 Q1009 A2982 NOSIG
Conditions at: MNMG (MANAGUA/AUGUSTO , NI) observed 1000 UTC 16 June 2019
Temperature: 25.0°C (77°F)
Dewpoint: 22.0°C (72°F) [RH = 83%]
Pressure (altimeter): 29.79 inches Hg (1009.0 mb)
Winds: from the E (90 degrees) at 7 MPH (6 knots; 3.1 m/s)
Visibility: 6 or more miles (10+ km)
Ceiling: at least 12,000 feet AGL
Clouds: few clouds at 2000 feet AGL
Weather: no significant weather observed at this time

METAR text: MNMG 160900Z 09006KT 9999 FEW020 25/23 Q1010 A2983 NOSIG
Conditions at: MNMG (MANAGUA/AUGUSTO , NI) observed 0900 UTC 16 June 2019
Temperature: 25.0°C (77°F)
Dewpoint: 23.0°C (73°F) [RH = 89%]
Pressure (altimeter): 29.82 inches Hg (1010.0 mb)
Winds: from the E (90 degrees) at 7 MPH (6 knots; 3.1 m/s)
Visibility: 6 or more miles (10+ km)
Ceiling: at least 12,000 feet AGL
Clouds: few clouds at 2000 feet AGL
Weather: no significant weather observed at this time

METAR text: MNMG 160800Z 09006KT 9999 FEW020 26/23 Q1010 A2984 NOSIG
Conditions at: MNMG (MANAGUA/AUGUSTO , NI) observed 0800 UTC 16 June 2019
Temperature: 26.0°C (79°F)
Dewpoint: 23.0°C (73°F) [RH = 84%]
Pressure (altimeter): 29.82 inches Hg (1010.0 mb)
Winds: from the E (90 degrees) at 7 MPH (6 knots; 3.1 m/s)
Visibility: 6 or more miles (10+ km)
Ceiling: at least 12,000 feet AGL
Clouds: few clouds at 2000 feet AGL
Weather: no significant weather observed at this time

METAR text: MNMG 160700Z 11010KT 9999 FEW020 27/24 Q1011 A2986 NOSIG
Conditions at: MNMG (MANAGUA/AUGUSTO , NI) observed 0700 UTC 16 June 2019
Temperature: 27.0°C (81°F)
Dewpoint: 24.0°C (75°F) [RH = 84%]
Pressure (altimeter): 29.85 inches Hg (1011.0 mb)
Winds: from the ESE (110 degrees) at 12 MPH (10 knots; 5.1 m/s)
Visibility: 6 or more miles (10+ km)
Ceiling: at least 12,000 feet AGL
Clouds: few clouds at 2000 feet AGL
Weather: no significant weather observed at this time

METAR text: MNMG 160600Z 11008KT 9999 FEW020 27/24 Q1011 A2988 NOSIG
Conditions at: MNMG (MANAGUA/AUGUSTO , NI) observed 0600 UTC 16 June 2019
Temperature: 27.0°C (81°F)
Dewpoint: 24.0°C (75°F) [RH = 84%]
Pressure (altimeter): 29.85 inches Hg (1011.0 mb)
Winds: from the ESE (110 degrees) at 9 MPH (8 knots; 4.1 m/s)
Visibility: 6 or more miles (10+ km)
Ceiling: at least 12,000 feet AGL
Clouds: few clouds at 2000 feet AGL
Weather: no significant weather observed at this time

METAR text: MNMG 160500Z 10006KT 9999 FEW020 SCT300 28/24 Q1011 A2988 NOSIG
Conditions at: MNMG (MANAGUA/AUGUSTO , NI) observed 0500 UTC 16 June 2019
Temperature: 28.0°C (82°F)
Dewpoint: 24.0°C (75°F) [RH = 79%]
Pressure (altimeter): 29.85 inches Hg (1011.0 mb)
Winds: from the E (100 degrees) at 7 MPH (6 knots; 3.1 m/s)
Visibility: 6 or more miles (10+ km)
Ceiling: at least 12,000 feet AGL
Clouds: few clouds at 2000 feet AGL
scattered clouds at 30000 feet AGL
Weather: no significant weather observed at this time

METAR text: MNMG 160400Z 11008KT 9999 FEW022 SCT300 28/24 Q1011 A2988 NOSIG
Conditions at: MNMG (MANAGUA/AUGUSTO , NI) observed 0400 UTC 16 June 2019
Temperature: 28.0°C (82°F)
Dewpoint: 24.0°C (75°F) [RH = 79%]
Pressure (altimeter): 29.85 inches Hg (1011.0 mb)
Winds: from the ESE (110 degrees) at 9 MPH (8 knots; 4.1 m/s)
Visibility: 6 or more miles (10+ km)
Ceiling: at least 12,000 feet AGL
Clouds: few clouds at 2200 feet AGL
scattered clouds at 30000 feet AGL
Weather: no significant weather observed at this time

METAR text: MNMG 160300Z 13008KT 9999 FEW022 29/26 Q1010 A2985 NOSIG
Conditions at: MNMG (MANAGUA/AUGUSTO , NI) observed 0300 UTC 16 June 2019
Temperature: 29.0°C (84°F)
Dewpoint: 26.0°C (79°F) [RH = 84%]
Pressure (altimeter): 29.82 inches Hg (1010.0 mb)
Winds: from the SE (130 degrees) at 9 MPH (8 knots; 4.1 m/s)
Visibility: 6 or more miles (10+ km)
Ceiling: at least 12,000 feet AGL
Clouds: few clouds at 2200 feet AGL
Weather: no significant weather observed at this time

METAR text: MNMG 160200Z 13010KT 9999 FEW022 29/25 Q1010 A2982 NOSIG
Conditions at: MNMG (MANAGUA/AUGUSTO , NI) observed 0200 UTC 16 June 2019
Temperature: 29.0°C (84°F)
Dewpoint: 25.0°C (77°F) [RH = 79%]
Pressure (altimeter): 29.82 inches Hg (1010.0 mb)
Winds: from the SE (130 degrees) at 12 MPH (10 knots; 5.1 m/s)
Visibility: 6 or more miles (10+ km)
Ceiling: at least 12,000 feet AGL
Clouds: few clouds at 2200 feet AGL
Weather: no significant weather observed at this time

METAR text: MNMG 160100Z 13006KT 9999 FEW022 SCT300 29/25 Q1009 A2980 NOSIG
Conditions at: MNMG (MANAGUA/AUGUSTO , NI) observed 0100 UTC 16 June 2019
Temperature: 29.0°C (84°F)
Dewpoint: 25.0°C (77°F) [RH = 79%]
Pressure (altimeter): 29.79 inches Hg (1009.0 mb)
Winds: from the SE (130 degrees) at 7 MPH (6 knots; 3.1 m/s)
Visibility: 6 or more miles (10+ km)
Ceiling: at least 12,000 feet AGL
Clouds: few clouds at 2200 feet AGL
scattered clouds at 30000 feet AGL
Weather: no significant weather observed at this time

METAR text: MNMG 160000Z 11006KT 9999 FEW022 SCT300 31/25 Q1008 A2978 NOSIG
Conditions at: MNMG (MANAGUA/AUGUSTO , NI) observed 0000 UTC 16 June 2019
Temperature: 31.0°C (88°F)
Dewpoint: 25.0°C (77°F) [RH = 71%]
Pressure (altimeter): 29.76 inches Hg (1008.0 mb)
Winds: from the ESE (110 degrees) at 7 MPH (6 knots; 3.1 m/s)
Visibility: 6 or more miles (10+ km)
Ceiling: at least 12,000 feet AGL
Clouds: few clouds at 2200 feet AGL
scattered clouds at 30000 feet AGL
Weather: no significant weather observed at this time

METAR text: MNMG 152300Z 13006KT 9999 FEW022 SCT070 32/24 Q1008 A2978 NOSIG
Conditions at: MNMG (MANAGUA/AUGUSTO , NI) observed 2300 UTC 15 June 2019
Temperature: 32.0°C (90°F)
Dewpoint: 24.0°C (75°F) [RH = 63%]
Pressure (altimeter): 29.76 inches Hg (1008.0 mb)
Winds: from the SE (130 degrees) at 7 MPH (6 knots; 3.1 m/s)
Visibility: 6 or more miles (10+ km)
Ceiling: at least 12,000 feet AGL
Clouds: few clouds at 2200 feet AGL
scattered clouds at 7000 feet AGL
Weather: no significant weather observed at this time

METAR text: MNMG 152200Z 09012KT 9999 SCT024 SCT070 33/23 Q1007 A2976 NOSIG
Conditions at: MNMG (MANAGUA/AUGUSTO , NI) observed 2200 UTC 15 June 2019
Temperature: 33.0°C (91°F)
Dewpoint: 23.0°C (73°F) [RH = 56%]
Pressure (altimeter): 29.73 inches Hg (1007.0 mb)
Winds: from the E (90 degrees) at 14 MPH (12 knots; 6.2 m/s)
Visibility: 6 or more miles (10+ km)
Ceiling: at least 12,000 feet AGL
Clouds: scattered clouds at 2400 feet AGL
scattered clouds at 7000 feet AGL
Weather: no significant weather observed at this time

METAR text: MNMG 152100Z 08008KT 9999 SCT024 34/23 Q1008 A2977 NOSIG
Conditions at: MNMG (MANAGUA/AUGUSTO , NI) observed 2100 UTC 15 June 2019
Temperature: 34.0°C (93°F)
Dewpoint: 23.0°C (73°F) [RH = 53%]
Pressure (altimeter): 29.76 inches Hg (1008.0 mb)
Winds: from the E (80 degrees) at 9 MPH (8 knots; 4.1 m/s)
Visibility: 6 or more miles (10+ km)
Ceiling: at least 12,000 feet AGL
Clouds: scattered clouds at 2400 feet AGL
Weather: no significant weather observed at this time

METAR text: MNMG 152000Z 09012KT 9999 SCT024 33/23 Q1009 A2981 NOSIG
Conditions at: MNMG (MANAGUA/AUGUSTO , NI) observed 2000 UTC 15 June 2019
Temperature: 33.0°C (91°F)
Dewpoint: 23.0°C (73°F) [RH = 56%]
Pressure (altimeter): 29.79 inches Hg (1009.0 mb)
Winds: from the E (90 degrees) at 14 MPH (12 knots; 6.2 m/s)
Visibility: 6 or more miles (10+ km)
Ceiling: at least 12,000 feet AGL
Clouds: scattered clouds at 2400 feet AGL
Weather: no significant weather observed at this time

METAR text: MNMG 151900Z 08014KT 9999 SCT024 32/23 Q1010 A2984 NOSIG
Conditions at: MNMG (MANAGUA/AUGUSTO , NI) observed 1900 UTC 15 June 2019
Temperature: 32.0°C (90°F)
Dewpoint: 23.0°C (73°F) [RH = 59%]
Pressure (altimeter): 29.82 inches Hg (1010.0 mb)
Winds: from the E (80 degrees) at 16 MPH (14 knots; 7.2 m/s)
Visibility: 6 or more miles (10+ km)
Ceiling: at least 12,000 feet AGL
Clouds: scattered clouds at 2400 feet AGL
Weather: no significant weather observed at this time

METAR text: MNMG 151800Z 06010KT 9999 SCT024TCU 33/23 Q1011 A2986 TCU NE SE NOSIG
Conditions at: MNMG (MANAGUA/AUGUSTO , NI) observed 1800 UTC 15 June 2019
Temperature: 33.0°C (91°F)
Dewpoint: 23.0°C (73°F) [RH = 56%]
Pressure (altimeter): 29.85 inches Hg (1011.0 mb)
Winds: from the ENE (60 degrees) at 12 MPH (10 knots; 5.1 m/s)
Visibility: 6 or more miles (10+ km)
Ceiling: at least 12,000 feet AGL
Clouds: scattered clouds at 2400 feet AGL
Weather: no significant weather observed at this time

METAR text: MNMG 151700Z 08012KT 9999 SCT024 32/22 Q1012 A2989 NOSIG
Conditions at: MNMG (MANAGUA/AUGUSTO , NI) observed 1700 UTC 15 June 2019
Temperature: 32.0°C (90°F)
Dewpoint: 22.0°C (72°F) [RH = 56%]
Pressure (altimeter): 29.88 inches Hg (1012.0 mb)
Winds: from the E (80 degrees) at 14 MPH (12 knots; 6.2 m/s)
Visibility: 6 or more miles (10+ km)
Ceiling: at least 12,000 feet AGL
Clouds: scattered clouds at 2400 feet AGL
Weather: no significant weather observed at this time

METAR text: MNMG 151600Z 07012KT 9999 FEW022 31/21 Q1012 A2991 NOSIG
Conditions at: MNMG (MANAGUA/AUGUSTO , NI) observed 1600 UTC 15 June 2019
Temperature: 31.0°C (88°F)
Dewpoint: 21.0°C (70°F) [RH = 55%]
Pressure (altimeter): 29.88 inches Hg (1012.0 mb)
Winds: from the ENE (70 degrees) at 14 MPH (12 knots; 6.2 m/s)
Visibility: 6 or more miles (10+ km)
Ceiling: at least 12,000 feet AGL
Clouds: few clouds at 2200 feet AGL
Weather: no significant weather observed at this time

METAR text: MNMG 151500Z 08012KT 9999 FEW021 30/21 Q1013 A2991 NOSIG
Conditions at: MNMG (MANAGUA/AUGUSTO , NI) observed 1500 UTC 15 June 2019
Temperature: 30.0°C (86°F)
Dewpoint: 21.0°C (70°F) [RH = 59%]
Pressure (altimeter): 29.91 inches Hg (1013.0 mb)
Winds: from the E (80 degrees) at 14 MPH (12 knots; 6.2 m/s)
Visibility: 6 or more miles (10+ km)
Ceiling: at least 12,000 feet AGL
Clouds: few clouds at 2100 feet AGL
Weather: no significant weather observed at this time

METAR text: MNMG 151400Z 10012KT 9999 FEW021 29/22 Q1012 A2990 NOSIG
Conditions at: MNMG (MANAGUA/AUGUSTO , NI) observed 1400 UTC 15 June 2019
Temperature: 29.0°C (84°F)
Dewpoint: 22.0°C (72°F) [RH = 66%]
Pressure (altimeter): 29.88 inches Hg (1012.0 mb)
Winds: from the E (100 degrees) at 14 MPH (12 knots; 6.2 m/s)
Visibility: 6 or more miles (10+ km)
Ceiling: at least 12,000 feet AGL
Clouds: few clouds at 2100 feet AGL
Weather: no significant weather observed at this time

METAR text: MNMG 151300Z 14004KT 9999 FEW020 27/23 Q1012 A2990 NOSIG
Conditions at: MNMG (MANAGUA/AUGUSTO , NI) observed 1300 UTC 15 June 2019
Temperature: 27.0°C (81°F)
Dewpoint: 23.0°C (73°F) [RH = 79%]
Pressure (altimeter): 29.88 inches Hg (1012.0 mb)
Winds: from the SE (140 degrees) at 5 MPH (4 knots; 2.1 m/s)
Visibility: 6 or more miles (10+ km)
Ceiling: at least 12,000 feet AGL
Clouds: few clouds at 2000 feet AGL
Weather: no significant weather observed at this time

METAR text: MNMG 151200Z 15004KT 9999 FEW020 25/23 Q1012 A2989 NOSIG
Conditions at: MNMG (MANAGUA/AUGUSTO , NI) observed 1200 UTC 15 June 2019
Temperature: 25.0°C (77°F)
Dewpoint: 23.0°C (73°F) [RH = 89%]
Pressure (altimeter): 29.88 inches Hg (1012.0 mb)
Winds: from the SSE (150 degrees) at 5 MPH (4 knots; 2.1 m/s)
Visibility: 6 or more miles (10+ km)
Ceiling: at least 12,000 feet AGL
Clouds: few clouds at 2000 feet AGL
Weather: no significant weather observed at this time

METAR text: MNMG 151100Z 15004KT 9999 FEW020 24/23 Q1011 A2986 NOSIG
Conditions at: MNMG (MANAGUA/AUGUSTO , NI) observed 1100 UTC 15 June 2019
Temperature: 24.0°C (75°F)
Dewpoint: 23.0°C (73°F) [RH = 94%]
Pressure (altimeter): 29.85 inches Hg (1011.0 mb)
Winds: from the SSE (150 degrees) at 5 MPH (4 knots; 2.1 m/s)
Visibility: 6 or more miles (10+ km)
Ceiling: at least 12,000 feet AGL
Clouds: few clouds at 2000 feet AGL
Weather: no significant weather observed at this time

METAR text: MNMG 151000Z 14004KT 9999 FEW020 25/23 Q1010 A2985 NOSIG
Conditions at: MNMG (MANAGUA/AUGUSTO , NI) observed 1000 UTC 15 June 2019
Temperature: 25.0°C (77°F)
Dewpoint: 23.0°C (73°F) [RH = 89%]
Pressure (altimeter): 29.82 inches Hg (1010.0 mb)
Winds: from the SE (140 degrees) at 5 MPH (4 knots; 2.1 m/s)
Visibility: 6 or more miles (10+ km)
Ceiling: at least 12,000 feet AGL
Clouds: few clouds at 2000 feet AGL
Weather: no significant weather observed at this time

METAR text: MNMG 150900Z 15006KT 9999 FEW020 25/23 Q1010 A2987 NOSIG
Conditions at: MNMG (MANAGUA/AUGUSTO , NI) observed 0900 UTC 15 June 2019
Temperature: 25.0°C (77°F)
Dewpoint: 23.0°C (73°F) [RH = 89%]
Pressure (altimeter): 29.82 inches Hg (1010.0 mb)
Winds: from the SSE (150 degrees) at 7 MPH (6 knots; 3.1 m/s)
Visibility: 6 or more miles (10+ km)
Ceiling: at least 12,000 feet AGL
Clouds: few clouds at 2000 feet AGL
Weather: no significant weather observed at this time

METAR text: MNMG 150800Z 11006KT 9999 FEW020 25/24 Q1011 A2987 NOSIG
Conditions at: MNMG (MANAGUA/AUGUSTO , NI) observed 0800 UTC 15 June 2019
Temperature: 25.0°C (77°F)
Dewpoint: 24.0°C (75°F) [RH = 94%]
Pressure (altimeter): 29.85 inches Hg (1011.0 mb)
Winds: from the ESE (110 degrees) at 7 MPH (6 knots; 3.1 m/s)
Visibility: 6 or more miles (10+ km)
Ceiling: at least 12,000 feet AGL
Clouds: few clouds at 2000 feet AGL
Weather: no significant weather observed at this time

METAR text: MNMG 150700Z 11004KT 9999 FEW020 26/24 Q1012 A2988 NOSIG
Conditions at: MNMG (MANAGUA/AUGUSTO , NI) observed 0700 UTC 15 June 2019
Temperature: 26.0°C (79°F)
Dewpoint: 24.0°C (75°F) [RH = 89%]
Pressure (altimeter): 29.88 inches Hg (1012.0 mb)
Winds: from the ESE (110 degrees) at 5 MPH (4 knots; 2.1 m/s)
Visibility: 6 or more miles (10+ km)
Ceiling: at least 12,000 feet AGL
Clouds: few clouds at 2000 feet AGL
Weather: no significant weather observed at this time

METAR text: MNMG 150600Z 10006KT 9999 FEW020 27/24 Q1012 A2990 NOSIG
Conditions at: MNMG (MANAGUA/AUGUSTO , NI) observed 0600 UTC 15 June 2019
Temperature: 27.0°C (81°F)
Dewpoint: 24.0°C (75°F) [RH = 84%]
Pressure (altimeter): 29.88 inches Hg (1012.0 mb)
Winds: from the E (100 degrees) at 7 MPH (6 knots; 3.1 m/s)
Visibility: 6 or more miles (10+ km)
Ceiling: at least 12,000 feet AGL
Clouds: few clouds at 2000 feet AGL
Weather: no significant weather observed at this time

METAR text: MNMG 150500Z 09004KT 9999 FEW020 27/24 Q1012 A2990 NOSIG
Conditions at: MNMG (MANAGUA/AUGUSTO , NI) observed 0500 UTC 15 June 2019
Temperature: 27.0°C (81°F)
Dewpoint: 24.0°C (75°F) [RH = 84%]
Pressure (altimeter): 29.88 inches Hg (1012.0 mb)
Winds: from the E (90 degrees) at 5 MPH (4 knots; 2.1 m/s)
Visibility: 6 or more miles (10+ km)
Ceiling: at least 12,000 feet AGL
Clouds: few clouds at 2000 feet AGL
Weather: no significant weather observed at this time

Forecast for: MNMG (MANAGUA/AUGUSTO , NI)
Text: MNMG 161430Z 1618/1718 09014KT 9999 FEW022 SCT300
Forecast period: 1800 to 2000 UTC 16 June 2019
Forecast type: FROM: standard forecast or significant change
Winds: from the E (90 degrees) at 16 MPH (14 knots; 7.2 m/s)
Visibility: 6 or more miles 10+ km)
Ceiling: at least 12,000 feet AGL
Clouds: few clouds at 2200 feet AGL
scattered clouds at 30000 feet AGL
Weather: no significant weather forecast for this period
Text: BECMG 1620/1623 SCT024
Forecast period: 2000 UTC 16 June 2019 to 1800 UTC 17 June 2019
Forecast type: BECOMING: Conditions expected to become as follows by 2300 UTC 16 June 2019
Winds: from the E (90 degrees) at 16 MPH (14 knots; 7.2 m/s)
Visibility: 6 or more miles 10+ km)
Ceiling: at least 12,000 feet AGL
Clouds: scattered clouds at 2400 feet AGL
Weather: no significant weather forecast for this period